Camp Meeker, CA (95419)

12:53 PM PDT on September 18, 2014 (GMT -0700)
Occidental Western Hills | Change Station
CLOSE
Current Station
Personal Weather Station
Location: Occidental, CA
Elevation: 1348 ft
Nearby Weather Stations

Elev 1348 ft 38.42 °N, 122.98 °W | Updated 12 seconds ago

Overcast
Overcast
64.0 °F
Feels Like 64.0 °F
N
1.8
Wind Variable Wind from SSE
Gusts 2.5 mph

Today
High -- | Low -- °F
--% Chance of Precip.
Yesterday
High -- | Low -- °F
Precip. -- in
6:56 AM 7:15 PM
Waning Crescent, 25% visible
Pressure 29.84 in
Visibility 6.0 miles
Clouds Scattered Clouds 1500 ft
Mostly Cloudy 2100 ft
Overcast 3900 ft
Dew Point 64 °F
Humidity 99%
Rainfall 0.30 in
Snow Depth 0 in , 0 in , 0 in
UV 2 out of 12
Pollen 5.10 out of 12
Air Quality Not available.
Flu Activity Not available.
METAR KSTS 181853Z 23006KT 6SM -RA SCT015 BKN021 OVC039 21/18 A2986 RMK AO2 RAE08B39 SLP104 P0000 T02060178

More Conditions Fewer Conditions

Pressure 29.84 in
Visibility 6.0 miles
Clouds Scattered Clouds 1500 ft
Mostly Cloudy 2100 ft
Overcast 3900 ft
Dew Point 64 °F
Humidity 99%
Rainfall 0.30 in
Snow Depth 0 in , 0 in , 0 in
UV 2 out of 12
Pollen 5.10 out of 12
Air Quality Not available.
Flu Activity Not available.
METAR KSTS 181853Z 23006KT 6SM -RA SCT015 BKN021 OVC039 21/18 A2986 RMK AO2 RAE08B39 SLP104 P0000 T02060178

More Conditions Fewer Conditions

10-Day Weather Forecast

Almanac

Astronomy

Sep. 18, 2014 Rise Set
Actual Time 6:56 AM PDT 7:15 PM PDT
Civil Twilight 6:29 AM PDT 7:41 PM PDT
Nautical Twilight 5:58 AM PDT 8:12 PM PDT
Astronomical Twilight 5:26 AM PDT 8:44 PM PDT
Moon 1:56 AM PDT 4:07 PM PDT
Length of Visible Light 13h 11m
Length of Day
12h 18m
Tomorrow will be 2m 28s shorter.
Waning Crescent, 25% of the Moon is Illuminated
Today
Waning Crescent
Sep 24
New
Oct 1
First Quarter
Oct 8
Full
Oct 15
Last Quarter

Today's Extremes

State Highs State Lows

Community

WunderPhotos

Upload Photos

1,754,421 photos uploaded!

WunderBlogs® & News

By Dr. Jeff Masters
Director of Meteorology, Weather Underground
By Kari Strenfel
Meteorologist, Weather Underground
By Christopher C. Burt
Weather Historian, Weather Underground
September 18, 2014
September 18, 2014
September 18, 2014

Nearby

Air Quality

  Air Quality AQ Index Pollutant
Thursday Good
OZONE
Friday Good
PM2.5
Saturday Moderate
PM2.5
Sunday Moderate
PM2.5
Monday Moderate
PM2.5
Tuesday Moderate
PM2.5

Snow Depth

Station Depth Elevation
Echo Peak 0 in 7800 ft
Summit Meadow 0 in 9122 ft
Rubicon #2 0 in 7500 ft
Forestdale Creek 0 in 8029 ft
CSS Lab 5 in 6900 ft

Earthquake Activity

City Distance Mag. Time & Date
The Geysers, California 26 miles 2.5 11:29 PM PDT
2014-09-17
Cobb, California 28 miles 2.7 1:23 PM PDT
2014-09-16
Minimum magnitude displayed is 2.5.

Coastal Water Temperatures

Place Temperature
Point Reyes, CA 64.9 °F
Arena Cove, CA 62.1 °F
San Francisco, CA 64.9 °F
Richmond, CA 66.9 °F

Nearby Weather Stations